sensor_id;sensor_type;location;lat;lon;timestamp;temperature;humidity
80132;SHT30;69442;51.442;10.564;2024-01-30T00:02:12;4.07;80.53
80132;SHT30;69442;51.442;10.564;2024-01-30T00:04:38;4.10;80.53
80132;SHT30;69442;51.442;10.564;2024-01-30T00:07:03;4.04;80.03
80132;SHT30;69442;51.442;10.564;2024-01-30T00:09:29;4.03;80.63
80132;SHT30;69442;51.442;10.564;2024-01-30T00:11:54;4.03;80.25
80132;SHT30;69442;51.442;10.564;2024-01-30T00:14:19;3.98;80.21
80132;SHT30;69442;51.442;10.564;2024-01-30T00:16:45;4.01;80.67
80132;SHT30;69442;51.442;10.564;2024-01-30T00:19:11;3.98;80.61
80132;SHT30;69442;51.442;10.564;2024-01-30T00:21:37;3.98;80.18
80132;SHT30;69442;51.442;10.564;2024-01-30T00:24:02;3.94;79.96
80132;SHT30;69442;51.442;10.564;2024-01-30T00:26:28;3.98;80.43
80132;SHT30;69442;51.442;10.564;2024-01-30T00:28:53;3.96;80.39
80132;SHT30;69442;51.442;10.564;2024-01-30T00:31:18;3.96;80.49
80132;SHT30;69442;51.442;10.564;2024-01-30T00:33:43;3.91;80.48
80132;SHT30;69442;51.442;10.564;2024-01-30T00:36:09;3.96;80.73
80132;SHT30;69442;51.442;10.564;2024-01-30T00:38:35;3.90;80.12
80132;SHT30;69442;51.442;10.564;2024-01-30T00:41:01;3.91;80.24
80132;SHT30;69442;51.442;10.564;2024-01-30T00:43:30;3.91;80.45
80132;SHT30;69442;51.442;10.564;2024-01-30T00:45:56;3.89;80.11
80132;SHT30;69442;51.442;10.564;2024-01-30T00:48:21;3.90;80.35
80132;SHT30;69442;51.442;10.564;2024-01-30T00:50:47;3.85;80.58
80132;SHT30;69442;51.442;10.564;2024-01-30T00:53:12;3.83;80.23
80132;SHT30;69442;51.442;10.564;2024-01-30T00:55:38;3.82;80.37
80132;SHT30;69442;51.442;10.564;2024-01-30T00:58:03;3.75;80.23
80132;SHT30;69442;51.442;10.564;2024-01-30T01:00:29;3.73;80.46
80132;SHT30;69442;51.442;10.564;2024-01-30T01:02:55;3.70;80.60
80132;SHT30;69442;51.442;10.564;2024-01-30T01:05:20;3.70;80.48
80132;SHT30;69442;51.442;10.564;2024-01-30T01:07:46;3.72;80.47
80132;SHT30;69442;51.442;10.564;2024-01-30T01:10:13;3.76;80.59
80132;SHT30;69442;51.442;10.564;2024-01-30T01:12:39;3.75;80.57
80132;SHT30;69442;51.442;10.564;2024-01-30T01:15:05;3.72;80.42
80132;SHT30;69442;51.442;10.564;2024-01-30T01:17:30;3.72;80.54
80132;SHT30;69442;51.442;10.564;2024-01-30T01:19:57;3.68;80.18
80132;SHT30;69442;51.442;10.564;2024-01-30T01:22:22;3.68;80.09
80132;SHT30;69442;51.442;10.564;2024-01-30T01:24:48;3.68;80.12
80132;SHT30;69442;51.442;10.564;2024-01-30T01:27:13;3.66;80.23
80132;SHT30;69442;51.442;10.564;2024-01-30T01:29:38;3.69;80.59
80132;SHT30;69442;51.442;10.564;2024-01-30T01:32:04;3.65;80.56
80132;SHT30;69442;51.442;10.564;2024-01-30T01:34:29;3.65;80.50
80132;SHT30;69442;51.442;10.564;2024-01-30T01:36:55;3.62;80.42
80132;SHT30;69442;51.442;10.564;2024-01-30T01:39:21;3.62;80.62
80132;SHT30;69442;51.442;10.564;2024-01-30T01:41:47;3.65;80.57
80132;SHT30;69442;51.442;10.564;2024-01-30T01:44:13;3.63;80.12
80132;SHT30;69442;51.442;10.564;2024-01-30T01:46:38;3.62;81.10
80132;SHT30;69442;51.442;10.564;2024-01-30T01:49:04;3.54;81.11
80132;SHT30;69442;51.442;10.564;2024-01-30T01:51:31;3.52;81.16
80132;SHT30;69442;51.442;10.564;2024-01-30T01:54:00;3.50;81.17
80132;SHT30;69442;51.442;10.564;2024-01-30T01:56:27;3.51;80.81
80132;SHT30;69442;51.442;10.564;2024-01-30T01:58:55;3.48;80.70
80132;SHT30;69442;51.442;10.564;2024-01-30T02:01:20;3.50;80.72
80132;SHT30;69442;51.442;10.564;2024-01-30T02:03:47;3.48;80.62
80132;SHT30;69442;51.442;10.564;2024-01-30T02:06:15;3.52;80.62
80132;SHT30;69442;51.442;10.564;2024-01-30T02:08:41;3.48;80.68
80132;SHT30;69442;51.442;10.564;2024-01-30T02:11:07;3.48;81.44
80132;SHT30;69442;51.442;10.564;2024-01-30T02:13:32;3.46;81.32
80132;SHT30;69442;51.442;10.564;2024-01-30T02:15:58;3.45;82.03
80132;SHT30;69442;51.442;10.564;2024-01-30T02:18:23;3.44;81.59
80132;SHT30;69442;51.442;10.564;2024-01-30T02:20:48;3.46;81.39
80132;SHT30;69442;51.442;10.564;2024-01-30T02:23:19;3.46;81.26
80132;SHT30;69442;51.442;10.564;2024-01-30T02:25:44;3.41;81.14
80132;SHT30;69442;51.442;10.564;2024-01-30T02:28:13;3.34;80.29
80132;SHT30;69442;51.442;10.564;2024-01-30T02:30:40;3.31;80.20
80132;SHT30;69442;51.442;10.564;2024-01-30T02:33:05;3.31;80.22
80132;SHT30;69442;51.442;10.564;2024-01-30T02:35:31;3.32;80.52
80132;SHT30;69442;51.442;10.564;2024-01-30T02:37:56;3.32;80.39
80132;SHT30;69442;51.442;10.564;2024-01-30T02:40:21;3.34;80.67
80132;SHT30;69442;51.442;10.564;2024-01-30T02:42:47;3.34;80.07
80132;SHT30;69442;51.442;10.564;2024-01-30T02:45:13;3.35;80.56
80132;SHT30;69442;51.442;10.564;2024-01-30T02:47:39;3.36;80.51
80132;SHT30;69442;51.442;10.564;2024-01-30T02:50:05;3.34;80.19
80132;SHT30;69442;51.442;10.564;2024-01-30T02:52:30;3.36;80.52
80132;SHT30;69442;51.442;10.564;2024-01-30T02:54:56;3.34;80.36
80132;SHT30;69442;51.442;10.564;2024-01-30T02:57:21;3.31;80.52
80132;SHT30;69442;51.442;10.564;2024-01-30T02:59:46;3.36;80.81
80132;SHT30;69442;51.442;10.564;2024-01-30T03:02:12;3.32;80.56
80132;SHT30;69442;51.442;10.564;2024-01-30T03:04:37;3.39;80.79
80132;SHT30;69442;51.442;10.564;2024-01-30T03:07:02;3.38;80.67
80132;SHT30;69442;51.442;10.564;2024-01-30T03:09:28;3.41;80.91
80132;SHT30;69442;51.442;10.564;2024-01-30T03:11:54;3.36;80.85
80132;SHT30;69442;51.442;10.564;2024-01-30T03:14:19;3.35;80.88
80132;SHT30;69442;51.442;10.564;2024-01-30T03:16:44;3.36;80.96
80132;SHT30;69442;51.442;10.564;2024-01-30T03:19:10;3.39;80.88
80132;SHT30;69442;51.442;10.564;2024-01-30T03:21:35;3.41;80.79
80132;SHT30;69442;51.442;10.564;2024-01-30T03:24:01;3.44;80.82
80132;SHT30;69442;51.442;10.564;2024-01-30T03:26:26;3.39;80.96
80132;SHT30;69442;51.442;10.564;2024-01-30T03:28:51;3.39;81.17
80132;SHT30;69442;51.442;10.564;2024-01-30T03:31:18;3.32;81.38
80132;SHT30;69442;51.442;10.564;2024-01-30T03:33:43;3.31;81.40
80132;SHT30;69442;51.442;10.564;2024-01-30T03:36:09;3.28;81.02
80132;SHT30;69442;51.442;10.564;2024-01-30T03:38:34;3.25;81.10
80132;SHT30;69442;51.442;10.564;2024-01-30T03:41:00;3.27;80.81
80132;SHT30;69442;51.442;10.564;2024-01-30T03:43:26;3.25;80.88
80132;SHT30;69442;51.442;10.564;2024-01-30T03:45:51;3.30;81.06
80132;SHT30;69442;51.442;10.564;2024-01-30T03:48:16;3.28;80.97
80132;SHT30;69442;51.442;10.564;2024-01-30T03:50:42;3.32;80.99
80132;SHT30;69442;51.442;10.564;2024-01-30T03:53:07;3.31;80.72
80132;SHT30;69442;51.442;10.564;2024-01-30T03:55:32;3.35;80.85
80132;SHT30;69442;51.442;10.564;2024-01-30T03:57:58;3.35;80.82
80132;SHT30;69442;51.442;10.564;2024-01-30T04:00:23;3.36;80.68
80132;SHT30;69442;51.442;10.564;2024-01-30T04:02:49;3.38;80.48
80132;SHT30;69442;51.442;10.564;2024-01-30T04:05:16;3.38;80.61
80132;SHT30;69442;51.442;10.564;2024-01-30T04:07:41;3.36;80.61
80132;SHT30;69442;51.442;10.564;2024-01-30T04:10:07;3.32;80.36
80132;SHT30;69442;51.442;10.564;2024-01-30T04:12:33;3.31;80.31
80132;SHT30;69442;51.442;10.564;2024-01-30T04:14:58;3.31;80.46
80132;SHT30;69442;51.442;10.564;2024-01-30T04:17:23;3.28;80.51
80132;SHT30;69442;51.442;10.564;2024-01-30T04:19:49;3.28;80.48
80132;SHT30;69442;51.442;10.564;2024-01-30T04:22:14;3.25;80.25
80132;SHT30;69442;51.442;10.564;2024-01-30T04:24:39;3.23;80.23
80132;SHT30;69442;51.442;10.564;2024-01-30T04:27:05;3.24;80.40
80132;SHT30;69442;51.442;10.564;2024-01-30T04:29:30;3.28;80.66
80132;SHT30;69442;51.442;10.564;2024-01-30T04:31:57;3.27;80.52
80132;SHT30;69442;51.442;10.564;2024-01-30T04:34:22;3.24;80.82
80132;SHT30;69442;51.442;10.564;2024-01-30T04:36:48;3.24;80.67
80132;SHT30;69442;51.442;10.564;2024-01-30T04:39:13;3.25;80.70
80132;SHT30;69442;51.442;10.564;2024-01-30T04:41:38;3.23;80.69
80132;SHT30;69442;51.442;10.564;2024-01-30T04:44:05;3.21;80.73
80132;SHT30;69442;51.442;10.564;2024-01-30T04:46:30;3.20;80.82
80132;SHT30;69442;51.442;10.564;2024-01-30T04:48:55;3.20;80.65
80132;SHT30;69442;51.442;10.564;2024-01-30T04:51:21;3.20;80.69
80132;SHT30;69442;51.442;10.564;2024-01-30T04:53:46;3.14;80.73
80132;SHT30;69442;51.442;10.564;2024-01-30T04:56:11;3.11;80.67
80132;SHT30;69442;51.442;10.564;2024-01-30T04:58:37;3.14;80.63
80132;SHT30;69442;51.442;10.564;2024-01-30T05:01:02;3.16;80.68
80132;SHT30;69442;51.442;10.564;2024-01-30T05:03:28;3.21;80.77
80132;SHT30;69442;51.442;10.564;2024-01-30T05:05:53;3.21;80.61
80132;SHT30;69442;51.442;10.564;2024-01-30T05:08:18;3.20;80.47
80132;SHT30;69442;51.442;10.564;2024-01-30T05:10:44;3.20;80.41
80132;SHT30;69442;51.442;10.564;2024-01-30T05:13:09;3.17;80.33
80132;SHT30;69442;51.442;10.564;2024-01-30T05:15:35;3.14;80.60
80132;SHT30;69442;51.442;10.564;2024-01-30T05:18:00;3.13;80.65
80132;SHT30;69442;51.442;10.564;2024-01-30T05:20:26;3.10;80.62
80132;SHT30;69442;51.442;10.564;2024-01-30T05:22:53;3.08;80.68
80132;SHT30;69442;51.442;10.564;2024-01-30T05:25:19;3.07;81.12
80132;SHT30;69442;51.442;10.564;2024-01-30T05:27:44;3.13;80.95
80132;SHT30;69442;51.442;10.564;2024-01-30T05:30:10;3.13;80.89
80132;SHT30;69442;51.442;10.564;2024-01-30T05:32:35;3.11;80.77
80132;SHT30;69442;51.442;10.564;2024-01-30T05:35:01;3.14;80.85
80132;SHT30;69442;51.442;10.564;2024-01-30T05:37:26;3.14;80.66
80132;SHT30;69442;51.442;10.564;2024-01-30T05:39:52;3.14;80.74
80132;SHT30;69442;51.442;10.564;2024-01-30T05:42:18;3.11;80.84
80132;SHT30;69442;51.442;10.564;2024-01-30T05:44:43;3.07;80.91
80132;SHT30;69442;51.442;10.564;2024-01-30T05:47:09;3.07;80.88
80132;SHT30;69442;51.442;10.564;2024-01-30T05:49:34;3.04;80.84
80132;SHT30;69442;51.442;10.564;2024-01-30T05:52:01;3.01;81.13
80132;SHT30;69442;51.442;10.564;2024-01-30T05:54:27;3.03;81.09
80132;SHT30;69442;51.442;10.564;2024-01-30T05:56:52;3.01;81.30
80132;SHT30;69442;51.442;10.564;2024-01-30T05:59:17;2.99;81.32
80132;SHT30;69442;51.442;10.564;2024-01-30T06:01:49;3.00;81.34
80132;SHT30;69442;51.442;10.564;2024-01-30T06:04:14;3.03;81.18
80132;SHT30;69442;51.442;10.564;2024-01-30T06:06:40;3.06;81.01
80132;SHT30;69442;51.442;10.564;2024-01-30T06:09:06;3.06;80.95
80132;SHT30;69442;51.442;10.564;2024-01-30T06:11:34;3.04;80.96
80132;SHT30;69442;51.442;10.564;2024-01-30T06:13:59;3.00;81.02
80132;SHT30;69442;51.442;10.564;2024-01-30T06:16:25;3.01;81.14
80132;SHT30;69442;51.442;10.564;2024-01-30T06:18:54;3.00;81.04
80132;SHT30;69442;51.442;10.564;2024-01-30T06:21:20;3.03;80.98
80132;SHT30;69442;51.442;10.564;2024-01-30T06:23:45;3.01;80.92
80132;SHT30;69442;51.442;10.564;2024-01-30T06:26:11;3.03;80.91
80132;SHT30;69442;51.442;10.564;2024-01-30T06:28:36;2.99;80.99
80132;SHT30;69442;51.442;10.564;2024-01-30T06:31:01;3.00;80.97
80132;SHT30;69442;51.442;10.564;2024-01-30T06:33:27;3.00;80.94
80132;SHT30;69442;51.442;10.564;2024-01-30T06:35:52;3.01;80.95
80132;SHT30;69442;51.442;10.564;2024-01-30T06:38:17;3.03;80.85
80132;SHT30;69442;51.442;10.564;2024-01-30T06:40:43;3.07;80.72
80132;SHT30;69442;51.442;10.564;2024-01-30T06:43:08;3.07;80.78
80132;SHT30;69442;51.442;10.564;2024-01-30T06:45:34;3.04;80.76
80132;SHT30;69442;51.442;10.564;2024-01-30T06:48:00;3.04;80.72
80132;SHT30;69442;51.442;10.564;2024-01-30T06:50:25;2.97;80.96
80132;SHT30;69442;51.442;10.564;2024-01-30T06:52:51;2.99;81.06
80132;SHT30;69442;51.442;10.564;2024-01-30T06:55:17;2.95;81.09
80132;SHT30;69442;51.442;10.564;2024-01-30T06:57:43;2.97;81.19
80132;SHT30;69442;51.442;10.564;2024-01-30T07:00:08;2.93;81.31
80132;SHT30;69442;51.442;10.564;2024-01-30T07:02:34;2.97;81.07
80132;SHT30;69442;51.442;10.564;2024-01-30T07:04:59;2.96;81.06
80132;SHT30;69442;51.442;10.564;2024-01-30T07:07:24;3.07;87.55
80132;SHT30;69442;51.442;10.564;2024-01-30T07:09:50;3.11;89.00
80132;SHT30;69442;51.442;10.564;2024-01-30T07:12:20;3.03;87.55
80132;SHT30;69442;51.442;10.564;2024-01-30T07:14:46;3.00;85.61
80132;SHT30;69442;51.442;10.564;2024-01-30T07:17:11;3.00;84.36
80132;SHT30;69442;51.442;10.564;2024-01-30T07:19:37;3.01;83.46
80132;SHT30;69442;51.442;10.564;2024-01-30T07:22:02;3.03;83.54
80132;SHT30;69442;51.442;10.564;2024-01-30T07:24:27;3.00;82.90
80132;SHT30;69442;51.442;10.564;2024-01-30T07:26:53;2.97;82.67
80132;SHT30;69442;51.442;10.564;2024-01-30T07:29:18;2.95;82.66
80132;SHT30;69442;51.442;10.564;2024-01-30T07:31:43;2.93;82.67
80132;SHT30;69442;51.442;10.564;2024-01-30T07:34:09;2.97;81.90
80132;SHT30;69442;51.442;10.564;2024-01-30T07:36:34;3.01;82.29
80132;SHT30;69442;51.442;10.564;2024-01-30T07:38:59;3.03;81.64
80132;SHT30;69442;51.442;10.564;2024-01-30T07:41:25;3.01;81.82
80132;SHT30;69442;51.442;10.564;2024-01-30T07:43:51;2.99;81.84
80132;SHT30;69442;51.442;10.564;2024-01-30T07:46:16;2.97;81.97
80132;SHT30;69442;51.442;10.564;2024-01-30T07:48:41;2.96;82.17
80132;SHT30;69442;51.442;10.564;2024-01-30T07:51:07;2.97;81.93
80132;SHT30;69442;51.442;10.564;2024-01-30T07:53:32;2.92;82.39
80132;SHT30;69442;51.442;10.564;2024-01-30T07:55:58;2.93;82.46
80132;SHT30;69442;51.442;10.564;2024-01-30T07:58:23;2.93;82.56
80132;SHT30;69442;51.442;10.564;2024-01-30T08:00:49;2.97;82.80
80132;SHT30;69442;51.442;10.564;2024-01-30T08:03:14;2.93;82.50
80132;SHT30;69442;51.442;10.564;2024-01-30T08:05:41;2.92;82.95
80132;SHT30;69442;51.442;10.564;2024-01-30T08:08:07;2.93;83.80
80132;SHT30;69442;51.442;10.564;2024-01-30T08:10:32;2.93;84.25
80132;SHT30;69442;51.442;10.564;2024-01-30T08:12:57;2.99;84.07
80132;SHT30;69442;51.442;10.564;2024-01-30T08:15:23;3.00;82.90
80132;SHT30;69442;51.442;10.564;2024-01-30T08:17:48;3.00;83.24
80132;SHT30;69442;51.442;10.564;2024-01-30T08:20:14;2.99;82.83
80132;SHT30;69442;51.442;10.564;2024-01-30T08:22:39;3.00;83.26
80132;SHT30;69442;51.442;10.564;2024-01-30T08:25:06;3.04;84.04
80132;SHT30;69442;51.442;10.564;2024-01-30T08:27:31;3.10;83.78
80132;SHT30;69442;51.442;10.564;2024-01-30T08:29:56;3.11;83.65
80132;SHT30;69442;51.442;10.564;2024-01-30T08:32:22;3.16;84.27
80132;SHT30;69442;51.442;10.564;2024-01-30T08:34:49;3.20;84.09
80132;SHT30;69442;51.442;10.564;2024-01-30T08:37:14;3.24;84.08
80132;SHT30;69442;51.442;10.564;2024-01-30T08:39:42;3.30;83.74
80132;SHT30;69442;51.442;10.564;2024-01-30T08:42:07;3.35;83.51
80132;SHT30;69442;51.442;10.564;2024-01-30T08:44:33;3.41;83.91
80132;SHT30;69442;51.442;10.564;2024-01-30T08:46:58;3.44;82.94
80132;SHT30;69442;51.442;10.564;2024-01-30T08:49:23;3.48;83.33
80132;SHT30;69442;51.442;10.564;2024-01-30T08:51:49;3.55;84.65
80132;SHT30;69442;51.442;10.564;2024-01-30T08:54:15;3.62;84.53
80132;SHT30;69442;51.442;10.564;2024-01-30T08:56:41;3.66;84.67
80132;SHT30;69442;51.442;10.564;2024-01-30T08:59:06;3.73;83.55
80132;SHT30;69442;51.442;10.564;2024-01-30T09:01:31;3.75;83.51
80132;SHT30;69442;51.442;10.564;2024-01-30T09:03:57;3.80;84.68
80132;SHT30;69442;51.442;10.564;2024-01-30T09:06:22;3.83;83.63
80132;SHT30;69442;51.442;10.564;2024-01-30T09:08:49;3.89;83.82
80132;SHT30;69442;51.442;10.564;2024-01-30T09:11:15;3.97;84.72
80132;SHT30;69442;51.442;10.564;2024-01-30T09:13:41;4.07;84.86
80132;SHT30;69442;51.442;10.564;2024-01-30T09:16:07;4.14;83.83
80132;SHT30;69442;51.442;10.564;2024-01-30T09:18:32;4.14;83.30
80132;SHT30;69442;51.442;10.564;2024-01-30T09:20:58;4.17;82.69
80132;SHT30;69442;51.442;10.564;2024-01-30T09:23:24;4.22;82.80
80132;SHT30;69442;51.442;10.564;2024-01-30T09:25:49;4.31;82.94
80132;SHT30;69442;51.442;10.564;2024-01-30T09:28:15;4.37;82.07
80132;SHT30;69442;51.442;10.564;2024-01-30T09:30:40;4.41;82.47
80132;SHT30;69442;51.442;10.564;2024-01-30T09:33:06;4.46;82.57
80132;SHT30;69442;51.442;10.564;2024-01-30T09:35:32;4.53;82.37
80132;SHT30;69442;51.442;10.564;2024-01-30T09:37:57;4.59;81.64
80132;SHT30;69442;51.442;10.564;2024-01-30T09:40:23;4.66;81.74
80132;SHT30;69442;51.442;10.564;2024-01-30T09:42:50;4.66;81.97
80132;SHT30;69442;51.442;10.564;2024-01-30T09:45:17;4.77;83.25
80132;SHT30;69442;51.442;10.564;2024-01-30T09:47:45;4.83;82.89
80132;SHT30;69442;51.442;10.564;2024-01-30T09:50:12;4.87;82.93
80132;SHT30;69442;51.442;10.564;2024-01-30T09:52:39;4.90;83.05
80132;SHT30;69442;51.442;10.564;2024-01-30T09:55:05;4.91;83.30
80132;SHT30;69442;51.442;10.564;2024-01-30T09:57:31;4.94;83.14
80132;SHT30;69442;51.442;10.564;2024-01-30T09:59:57;4.98;82.90
80132;SHT30;69442;51.442;10.564;2024-01-30T10:02:22;5.08;83.00
80132;SHT30;69442;51.442;10.564;2024-01-30T10:04:49;5.14;82.29
80132;SHT30;69442;51.442;10.564;2024-01-30T10:07:16;5.17;82.11
80132;SHT30;69442;51.442;10.564;2024-01-30T10:09:41;5.24;82.08
80132;SHT30;69442;51.442;10.564;2024-01-30T10:12:07;5.25;82.30
80132;SHT30;69442;51.442;10.564;2024-01-30T10:14:34;5.32;82.25
80132;SHT30;69442;51.442;10.564;2024-01-30T10:17:01;5.35;82.51
80132;SHT30;69442;51.442;10.564;2024-01-30T10:19:27;5.48;82.16
80132;SHT30;69442;51.442;10.564;2024-01-30T10:21:52;5.53;81.76
80132;SHT30;69442;51.442;10.564;2024-01-30T10:24:18;5.60;81.04
80132;SHT30;69442;51.442;10.564;2024-01-30T10:26:44;5.57;81.07
80132;SHT30;69442;51.442;10.564;2024-01-30T10:29:09;5.70;81.84
80132;SHT30;69442;51.442;10.564;2024-01-30T10:31:34;5.84;81.38
80132;SHT30;69442;51.442;10.564;2024-01-30T10:34:00;5.89;80.78
80132;SHT30;69442;51.442;10.564;2024-01-30T10:36:28;5.89;81.26
80132;SHT30;69442;51.442;10.564;2024-01-30T10:38:59;6.04;80.85
80132;SHT30;69442;51.442;10.564;2024-01-30T10:41:26;6.14;80.69
80132;SHT30;69442;51.442;10.564;2024-01-30T10:44:02;6.15;80.18
80132;SHT30;69442;51.442;10.564;2024-01-30T10:46:32;6.12;81.33
80132;SHT30;69442;51.442;10.564;2024-01-30T10:49:00;6.32;79.90
80132;SHT30;69442;51.442;10.564;2024-01-30T10:51:26;6.22;80.12
80132;SHT30;69442;51.442;10.564;2024-01-30T10:53:52;6.24;81.33
80132;SHT30;69442;51.442;10.564;2024-01-30T10:56:20;6.25;81.14
80132;SHT30;69442;51.442;10.564;2024-01-30T10:58:46;6.42;80.91
80132;SHT30;69442;51.442;10.564;2024-01-30T11:01:12;6.38;80.83
80132;SHT30;69442;51.442;10.564;2024-01-30T11:03:38;6.40;80.85
80132;SHT30;69442;51.442;10.564;2024-01-30T11:06:03;6.62;79.75
80132;SHT30;69442;51.442;10.564;2024-01-30T11:08:32;6.73;79.51
80132;SHT30;69442;51.442;10.564;2024-01-30T11:10:58;6.72;79.98
80132;SHT30;69442;51.442;10.564;2024-01-30T11:13:30;6.76;79.83
80132;SHT30;69442;51.442;10.564;2024-01-30T11:16:00;6.80;79.25
80132;SHT30;69442;51.442;10.564;2024-01-30T11:18:26;6.83;79.20
80132;SHT30;69442;51.442;10.564;2024-01-30T11:20:56;6.85;79.20
80132;SHT30;69442;51.442;10.564;2024-01-30T11:23:22;6.95;79.10
80132;SHT30;69442;51.442;10.564;2024-01-30T11:25:48;7.04;78.63
80132;SHT30;69442;51.442;10.564;2024-01-30T11:28:14;7.07;78.80
80132;SHT30;69442;51.442;10.564;2024-01-30T11:30:43;7.12;78.88
80132;SHT30;69442;51.442;10.564;2024-01-30T11:33:11;7.22;78.25
80132;SHT30;69442;51.442;10.564;2024-01-30T11:35:43;7.20;78.88
80132;SHT30;69442;51.442;10.564;2024-01-30T11:38:11;7.09;79.21
80132;SHT30;69442;51.442;10.564;2024-01-30T11:40:39;7.05;80.14
80132;SHT30;69442;51.442;10.564;2024-01-30T11:43:06;7.11;79.78
80132;SHT30;69442;51.442;10.564;2024-01-30T11:45:32;7.30;78.50
80132;SHT30;69442;51.442;10.564;2024-01-30T11:47:58;7.25;79.50
80132;SHT30;69442;51.442;10.564;2024-01-30T11:50:37;7.26;79.86
80132;SHT30;69442;51.442;10.564;2024-01-30T11:53:04;7.26;79.70
80132;SHT30;69442;51.442;10.564;2024-01-30T11:55:30;7.30;80.50
80132;SHT30;69442;51.442;10.564;2024-01-30T11:57:57;7.44;79.17
80132;SHT30;69442;51.442;10.564;2024-01-30T12:00:22;7.44;79.22
80132;SHT30;69442;51.442;10.564;2024-01-30T12:02:52;7.47;78.92
80132;SHT30;69442;51.442;10.564;2024-01-30T12:05:21;7.46;79.75
80132;SHT30;69442;51.442;10.564;2024-01-30T12:07:46;7.56;78.75
80132;SHT30;69442;51.442;10.564;2024-01-30T12:10:13;7.54;79.37
80132;SHT30;69442;51.442;10.564;2024-01-30T12:12:41;7.69;78.86
80132;SHT30;69442;51.442;10.564;2024-01-30T12:15:07;7.67;79.34
80132;SHT30;69442;51.442;10.564;2024-01-30T12:17:34;7.69;79.39
80132;SHT30;69442;51.442;10.564;2024-01-30T12:20:10;7.77;78.61
80132;SHT30;69442;51.442;10.564;2024-01-30T12:22:39;7.82;78.29
80132;SHT30;69442;51.442;10.564;2024-01-30T12:25:11;7.80;79.23
80132;SHT30;69442;51.442;10.564;2024-01-30T12:27:38;7.82;78.57
80132;SHT30;69442;51.442;10.564;2024-01-30T12:30:13;7.92;77.85
80132;SHT30;69442;51.442;10.564;2024-01-30T12:32:41;7.97;78.84
80132;SHT30;69442;51.442;10.564;2024-01-30T12:35:14;7.97;80.12
80132;SHT30;69442;51.442;10.564;2024-01-30T12:37:40;8.02;80.45
80132;SHT30;69442;51.442;10.564;2024-01-30T12:40:09;8.05;80.69
80132;SHT30;69442;51.442;10.564;2024-01-30T12:42:35;8.09;80.01
80132;SHT30;69442;51.442;10.564;2024-01-30T12:45:04;8.15;79.28
80132;SHT30;69442;51.442;10.564;2024-01-30T12:47:30;8.21;79.43
80132;SHT30;69442;51.442;10.564;2024-01-30T12:49:56;8.30;78.31
80132;SHT30;69442;51.442;10.564;2024-01-30T12:52:22;8.39;78.05
80132;SHT30;69442;51.442;10.564;2024-01-30T12:54:48;8.39;77.75
80132;SHT30;69442;51.442;10.564;2024-01-30T12:57:14;8.39;77.87
80132;SHT30;69442;51.442;10.564;2024-01-30T12:59:39;8.46;77.28
80132;SHT30;69442;51.442;10.564;2024-01-30T13:02:05;8.54;77.21
80132;SHT30;69442;51.442;10.564;2024-01-30T13:04:31;8.57;76.60
80132;SHT30;69442;51.442;10.564;2024-01-30T13:06:57;8.57;76.25
80132;SHT30;69442;51.442;10.564;2024-01-30T13:09:23;8.63;76.87
80132;SHT30;69442;51.442;10.564;2024-01-30T13:11:49;8.60;76.31
80132;SHT30;69442;51.442;10.564;2024-01-30T13:14:15;8.60;76.35
80132;SHT30;69442;51.442;10.564;2024-01-30T13:16:40;8.60;75.86
80132;SHT30;69442;51.442;10.564;2024-01-30T13:19:05;8.54;78.06
80132;SHT30;69442;51.442;10.564;2024-01-30T13:21:31;8.57;76.69
80132;SHT30;69442;51.442;10.564;2024-01-30T13:23:56;8.63;75.95
80132;SHT30;69442;51.442;10.564;2024-01-30T13:26:22;8.65;76.43
80132;SHT30;69442;51.442;10.564;2024-01-30T13:28:47;8.71;76.43
80132;SHT30;69442;51.442;10.564;2024-01-30T13:31:14;8.70;76.34
80132;SHT30;69442;51.442;10.564;2024-01-30T13:33:40;8.67;76.55
80132;SHT30;69442;51.442;10.564;2024-01-30T13:36:09;8.65;78.00
80132;SHT30;69442;51.442;10.564;2024-01-30T13:38:35;8.67;78.65
80132;SHT30;69442;51.442;10.564;2024-01-30T13:41:00;8.71;76.94
80132;SHT30;69442;51.442;10.564;2024-01-30T13:43:26;8.75;77.37
80132;SHT30;69442;51.442;10.564;2024-01-30T13:45:52;8.77;77.06
80132;SHT30;69442;51.442;10.564;2024-01-30T13:48:17;8.74;78.95
80132;SHT30;69442;51.442;10.564;2024-01-30T13:50:43;8.78;76.93
80132;SHT30;69442;51.442;10.564;2024-01-30T13:53:08;8.75;79.10
80132;SHT30;69442;51.442;10.564;2024-01-30T13:55:34;8.81;76.29
80132;SHT30;69442;51.442;10.564;2024-01-30T13:57:59;8.84;76.09
80132;SHT30;69442;51.442;10.564;2024-01-30T14:00:26;8.84;76.08
80132;SHT30;69442;51.442;10.564;2024-01-30T14:02:52;8.82;75.59
80132;SHT30;69442;51.442;10.564;2024-01-30T14:05:19;8.87;74.84
80132;SHT30;69442;51.442;10.564;2024-01-30T14:07:46;8.84;75.07
80132;SHT30;69442;51.442;10.564;2024-01-30T14:10:12;8.85;75.23
80132;SHT30;69442;51.442;10.564;2024-01-30T14:12:38;8.84;76.23
80132;SHT30;69442;51.442;10.564;2024-01-30T14:15:03;8.82;75.26
80132;SHT30;69442;51.442;10.564;2024-01-30T14:17:29;8.82;75.22
80132;SHT30;69442;51.442;10.564;2024-01-30T14:19:54;8.87;74.65
80132;SHT30;69442;51.442;10.564;2024-01-30T14:22:20;8.81;74.80
80132;SHT30;69442;51.442;10.564;2024-01-30T14:24:45;8.81;74.49
80132;SHT30;69442;51.442;10.564;2024-01-30T14:27:12;8.82;75.05
80132;SHT30;69442;51.442;10.564;2024-01-30T14:29:37;8.79;74.69
80132;SHT30;69442;51.442;10.564;2024-01-30T14:32:03;8.75;75.92
80132;SHT30;69442;51.442;10.564;2024-01-30T14:34:29;8.77;75.79
80132;SHT30;69442;51.442;10.564;2024-01-30T14:36:54;8.79;76.39
80132;SHT30;69442;51.442;10.564;2024-01-30T14:39:20;8.78;75.58
80132;SHT30;69442;51.442;10.564;2024-01-30T14:41:45;8.78;76.45
80132;SHT30;69442;51.442;10.564;2024-01-30T14:44:10;8.79;77.11
80132;SHT30;69442;51.442;10.564;2024-01-30T14:46:36;8.82;75.72
80132;SHT30;69442;51.442;10.564;2024-01-30T14:49:03;8.78;75.30
80132;SHT30;69442;51.442;10.564;2024-01-30T14:51:33;8.79;75.48
80132;SHT30;69442;51.442;10.564;2024-01-30T14:53:59;8.77;75.60
80132;SHT30;69442;51.442;10.564;2024-01-30T14:56:24;8.74;76.69
80132;SHT30;69442;51.442;10.564;2024-01-30T14:58:50;8.72;76.97
80132;SHT30;69442;51.442;10.564;2024-01-30T15:01:15;8.72;75.32
80132;SHT30;69442;51.442;10.564;2024-01-30T15:03:40;8.71;75.50
80132;SHT30;69442;51.442;10.564;2024-01-30T15:06:08;8.68;77.11
80132;SHT30;69442;51.442;10.564;2024-01-30T15:08:33;8.70;76.08
80132;SHT30;69442;51.442;10.564;2024-01-30T15:10:59;8.70;75.63
80132;SHT30;69442;51.442;10.564;2024-01-30T15:13:24;8.70;76.42
80132;SHT30;69442;51.442;10.564;2024-01-30T15:15:49;8.68;76.63
80132;SHT30;69442;51.442;10.564;2024-01-30T15:18:15;8.67;77.11
80132;SHT30;69442;51.442;10.564;2024-01-30T15:20:40;8.67;77.32
80132;SHT30;69442;51.442;10.564;2024-01-30T15:23:06;8.68;77.58